createdAt,value
2017-12-22T00:00:36.600Z,0
2017-12-22T00:01:38.700Z,0
2017-12-22T00:02:40.962Z,0
2017-12-22T00:03:43.936Z,0
2017-12-22T00:04:45.993Z,0
2017-12-22T00:05:50.869Z,0
2017-12-22T00:06:52.948Z,0
2017-12-22T00:07:54.957Z,0
2017-12-22T00:08:57.902Z,0
2017-12-22T00:09:59.962Z,0
2017-12-22T00:11:02.875Z,0
2017-12-22T00:12:05.655Z,0
2017-12-22T00:13:10.514Z,0
2017-12-22T00:14:12.540Z,0
2017-12-22T00:15:14.692Z,0
2017-12-22T00:16:19.354Z,0
2017-12-22T00:17:21.419Z,0
2017-12-22T00:18:23.380Z,0
2017-12-22T00:19:25.478Z,0
2017-12-22T00:20:27.518Z,0
2017-12-22T00:21:29.575Z,0
2017-12-22T00:22:31.785Z,0
2017-12-22T00:23:34.328Z,0
2017-12-22T00:24:36.928Z,0
2017-12-22T00:25:38.968Z,0
2017-12-22T00:26:51.963Z,0
2017-12-22T00:27:57.014Z,0
2017-12-22T00:28:59.144Z,0
2017-12-22T00:30:02.479Z,0
2017-12-22T00:31:04.953Z,0
2017-12-22T00:32:07.896Z,0
2017-12-22T00:33:10.064Z,0
2017-12-22T00:35:21.970Z,0
2017-12-22T00:37:33.937Z,0
2017-12-22T00:39:46.556Z,0
2017-12-22T00:40:48.163Z,0
2017-12-22T00:41:50.817Z,0
2017-12-22T00:42:52.440Z,0
2017-12-22T00:43:54.171Z,0
2017-12-22T00:44:55.892Z,0
2017-12-22T00:45:57.754Z,0
2017-12-22T00:46:59.581Z,0
2017-12-22T00:48:01.329Z,0
2017-12-22T00:49:03.071Z,0
2017-12-22T00:50:04.820Z,0
2017-12-22T00:51:06.611Z,0
2017-12-22T00:52:08.378Z,0
2017-12-22T00:53:10.128Z,0
2017-12-22T00:54:11.839Z,0
2017-12-22T00:55:13.575Z,0
2017-12-22T00:56:15.348Z,0
2017-12-22T00:57:17.070Z,0
2017-12-22T00:58:18.788Z,0
2017-12-22T00:59:20.516Z,0
2017-12-22T01:00:22.363Z,0
2017-12-22T01:01:24.105Z,0
2017-12-22T01:02:25.788Z,0
2017-12-22T01:03:27.468Z,0
2017-12-22T01:04:29.184Z,0
2017-12-22T01:05:30.965Z,0
2017-12-22T01:06:32.702Z,0
2017-12-22T01:07:34.653Z,0
2017-12-22T01:08:36.379Z,0
2017-12-22T01:09:38.142Z,0
2017-12-22T01:10:39.895Z,0
2017-12-22T01:11:41.630Z,0
2017-12-22T01:12:43.356Z,0
2017-12-22T01:13:45.088Z,0
2017-12-22T01:14:46.782Z,0
2017-12-22T01:15:48.940Z,0
2017-12-22T01:16:51.044Z,0
2017-12-22T01:17:53.116Z,0
2017-12-22T01:18:54.912Z,0
2017-12-22T01:19:56.716Z,0
2017-12-22T01:20:58.507Z,0
2017-12-22T01:22:00.306Z,0
2017-12-22T01:23:02.049Z,0
2017-12-22T01:24:03.811Z,0
2017-12-22T01:25:05.586Z,0
2017-12-22T01:26:07.372Z,0
2017-12-22T01:27:09.404Z,0
2017-12-22T01:28:11.182Z,0
2017-12-22T01:29:13.045Z,0
2017-12-22T01:30:15.062Z,0
2017-12-22T01:31:17.094Z,0
2017-12-22T01:32:18.873Z,0
2017-12-22T01:33:20.587Z,0
2017-12-22T01:34:22.346Z,0
2017-12-22T01:35:24.328Z,0
2017-12-22T01:36:26.057Z,0
2017-12-22T01:37:27.776Z,0
2017-12-22T01:38:29.857Z,0
2017-12-22T01:39:31.571Z,0
2017-12-22T01:40:33.583Z,0
2017-12-22T01:41:35.345Z,0
2017-12-22T01:42:37.139Z,0
2017-12-22T01:43:38.888Z,0
2017-12-22T01:44:40.626Z,0
2017-12-22T01:45:42.754Z,0
2017-12-22T01:46:44.459Z,0
2017-12-22T01:47:46.152Z,0
2017-12-22T01:48:48.122Z,0
2017-12-22T01:49:50.175Z,0
2017-12-22T01:50:52.314Z,0
2017-12-22T01:51:54.360Z,0
2017-12-22T01:52:56.279Z,0
2017-12-22T01:53:58.049Z,0
2017-12-22T01:54:59.849Z,0
2017-12-22T01:56:01.724Z,0
2017-12-22T01:57:03.456Z,0
2017-12-22T01:58:05.208Z,0
2017-12-22T01:59:06.968Z,0
2017-12-22T02:00:08.739Z,0
2017-12-22T02:01:10.458Z,0
2017-12-22T02:02:12.214Z,0
2017-12-22T02:03:13.959Z,0
2017-12-22T02:04:15.699Z,0
2017-12-22T02:05:17.481Z,0
2017-12-22T02:06:19.357Z,0
2017-12-22T02:07:21.101Z,0
2017-12-22T02:08:22.901Z,0
2017-12-22T02:09:24.609Z,0
2017-12-22T02:10:26.708Z,0
2017-12-22T02:11:28.480Z,0
2017-12-22T02:12:30.204Z,0
2017-12-22T02:13:31.964Z,0
2017-12-22T02:14:33.666Z,0
2017-12-22T02:15:35.399Z,0
2017-12-22T02:16:37.181Z,0
2017-12-22T02:17:38.936Z,0
2017-12-22T02:18:40.680Z,0
2017-12-22T02:19:42.446Z,0
2017-12-22T02:21:54.349Z,0
2017-12-22T02:24:06.943Z,0
2017-12-22T02:25:09.358Z,0
2017-12-22T02:26:10.988Z,0
2017-12-22T02:27:12.751Z,0
2017-12-22T02:28:14.571Z,0
2017-12-22T02:29:16.302Z,0
2017-12-22T02:30:18.081Z,0
2017-12-22T02:31:19.850Z,0
2017-12-22T02:32:21.633Z,0
2017-12-22T02:33:23.430Z,0
2017-12-22T02:34:25.225Z,0
2017-12-22T02:35:26.997Z,0
2017-12-22T02:36:28.769Z,0
2017-12-22T02:37:30.502Z,0
2017-12-22T02:38:32.243Z,0
2017-12-22T02:39:33.998Z,0
2017-12-22T02:40:35.762Z,0
2017-12-22T02:41:37.462Z,0
2017-12-22T02:42:39.216Z,0
2017-12-22T02:43:40.923Z,0
2017-12-22T02:44:42.945Z,0
2017-12-22T02:45:44.681Z,0
2017-12-22T02:46:46.446Z,0
2017-12-22T02:47:48.190Z,0
2017-12-22T02:48:49.971Z,0
2017-12-22T02:49:51.749Z,0
2017-12-22T02:52:03.688Z,0
2017-12-22T02:53:05.946Z,0
2017-12-22T02:54:07.762Z,0
2017-12-22T02:55:09.793Z,0
2017-12-22T02:56:11.867Z,0
2017-12-22T02:57:13.954Z,0
2017-12-22T02:58:16.009Z,0
2017-12-22T02:59:18.853Z,0
2017-12-22T03:00:20.812Z,0
2017-12-22T03:01:23.847Z,0
2017-12-22T03:02:25.838Z,0
2017-12-22T03:03:27.941Z,0
2017-12-22T03:04:29.949Z,0
2017-12-22T03:05:32.790Z,0
2017-12-22T03:06:35.874Z,0
2017-12-22T03:07:37.924Z,0
2017-12-22T03:08:39.907Z,0
2017-12-22T03:09:42.795Z,0
2017-12-22T03:10:47.873Z,0
2017-12-22T03:11:49.923Z,0
2017-12-22T03:13:06.800Z,0
2017-12-22T03:14:08.968Z,0
2017-12-22T03:15:11.079Z,0
2017-12-22T03:16:13.930Z,0
2017-12-22T03:17:15.960Z,0
2017-12-22T03:18:18.852Z,0
2017-12-22T03:19:21.809Z,0
2017-12-22T03:20:23.862Z,0
2017-12-22T03:21:25.981Z,0
2017-12-22T03:22:28.010Z,0
2017-12-22T03:23:30.022Z,0
2017-12-22T03:24:32.812Z,0
2017-12-22T03:25:34.879Z,0
2017-12-22T03:26:39.859Z,0
2017-12-22T03:27:41.905Z,0
2017-12-22T03:28:43.911Z,0
2017-12-22T03:29:46.814Z,0
2017-12-22T03:30:48.852Z,0
2017-12-22T03:31:50.852Z,0
2017-12-22T03:32:52.842Z,0
2017-12-22T03:33:54.934Z,0
2017-12-22T03:34:56.958Z,0
2017-12-22T03:35:59.039Z,0
2017-12-22T03:37:01.099Z,0
2017-12-22T03:38:03.146Z,0
2017-12-22T03:39:05.884Z,0
2017-12-22T03:40:07.925Z,0
2017-12-22T03:41:09.890Z,0
2017-12-22T03:42:14.838Z,0
2017-12-22T03:43:16.902Z,0
2017-12-22T03:44:18.911Z,0
2017-12-22T03:45:20.972Z,0
2017-12-22T03:46:23.815Z,0
2017-12-22T03:47:25.814Z,0
2017-12-22T03:48:27.841Z,0
2017-12-22T03:49:29.904Z,0
2017-12-22T03:50:31.961Z,0
2017-12-22T03:51:34.006Z,0
2017-12-22T03:52:36.003Z,0
2017-12-22T03:53:37.964Z,0
2017-12-22T03:54:40.032Z,0
2017-12-22T03:55:42.180Z,0
2017-12-22T03:56:44.130Z,0
2017-12-22T03:57:48.867Z,0
2017-12-22T03:58:50.954Z,0
2017-12-22T03:59:53.059Z,0
2017-12-22T04:00:55.066Z,0
2017-12-22T04:01:57.225Z,0
2017-12-22T04:02:59.299Z,0
2017-12-22T04:04:01.311Z,0
2017-12-22T04:05:03.402Z,0
2017-12-22T04:06:05.427Z,0
2017-12-22T04:07:07.517Z,0
2017-12-22T04:08:10.368Z,0
2017-12-22T04:09:12.341Z,0
2017-12-22T04:10:15.198Z,0
2017-12-22T04:11:17.261Z,0
2017-12-22T04:12:19.321Z,0
2017-12-22T04:13:21.374Z,0
2017-12-22T04:14:23.463Z,0
2017-12-22T04:15:25.466Z,0
2017-12-22T04:16:27.655Z,0
2017-12-22T04:17:30.339Z,0
2017-12-22T04:18:32.432Z,0
2017-12-22T04:19:34.405Z,0
2017-12-22T04:20:37.354Z,0
2017-12-22T04:21:39.486Z,0
2017-12-22T04:22:41.562Z,0
2017-12-22T04:23:44.322Z,0
2017-12-22T04:24:46.416Z,0
2017-12-22T04:25:48.499Z,0
2017-12-22T04:26:50.526Z,0
2017-12-22T04:27:52.583Z,0
2017-12-22T04:28:54.600Z,0
2017-12-22T04:29:56.645Z,0
2017-12-22T04:30:58.642Z,0
2017-12-22T04:32:01.408Z,0
2017-12-22T04:33:03.431Z,0
2017-12-22T04:34:05.497Z,0
2017-12-22T04:35:07.505Z,0
2017-12-22T04:36:09.576Z,0
2017-12-22T04:37:11.609Z,0
2017-12-22T04:38:13.654Z,0
2017-12-22T04:39:15.656Z,0
2017-12-22T04:40:24.413Z,0
2017-12-22T04:41:26.419Z,0
2017-12-22T04:42:28.402Z,0
2017-12-22T04:43:33.294Z,0
2017-12-22T04:44:36.114Z,0
2017-12-22T04:45:38.239Z,0
2017-12-22T04:46:40.277Z,0
2017-12-22T04:47:42.214Z,0
2017-12-22T04:48:46.927Z,0
2017-12-22T04:49:49.023Z,0
2017-12-22T04:50:51.067Z,0
2017-12-22T04:51:53.861Z,0
2017-12-22T04:52:56.317Z,0
2017-12-22T04:53:58.390Z,0
2017-12-22T04:55:00.479Z,0
2017-12-22T04:56:02.551Z,0
2017-12-22T04:57:07.329Z,0
2017-12-22T04:58:09.424Z,0
2017-12-22T04:59:11.458Z,0
2017-12-22T05:00:13.431Z,0
2017-12-22T05:01:15.548Z,0
2017-12-22T05:02:17.588Z,0
2017-12-22T05:03:19.687Z,0
2017-12-22T05:04:22.361Z,0
2017-12-22T05:05:24.407Z,0
2017-12-22T05:06:26.428Z,0
2017-12-22T05:07:28.572Z,0
2017-12-22T05:08:30.657Z,0
2017-12-22T05:09:33.463Z,0
2017-12-22T05:10:35.556Z,0
2017-12-22T05:11:37.674Z,0
2017-12-22T05:12:39.756Z,0
2017-12-22T05:13:42.371Z,0
2017-12-22T05:14:44.385Z,0
2017-12-22T05:15:46.478Z,0
2017-12-22T05:16:49.374Z,0
2017-12-22T05:17:51.434Z,0
2017-12-22T05:18:53.404Z,0
2017-12-22T05:19:55.340Z,0
2017-12-22T05:20:57.881Z,0
2017-12-22T05:22:06.904Z,0
2017-12-22T05:23:08.952Z,0
2017-12-22T05:24:10.988Z,0
2017-12-22T05:25:13.014Z,0
2017-12-22T05:26:15.060Z,0
2017-12-22T05:27:16.967Z,0
2017-12-22T05:28:18.978Z,0
2017-12-22T05:29:20.992Z,0
2017-12-22T05:30:22.988Z,0
2017-12-22T05:31:24.981Z,0
2017-12-22T05:32:27.030Z,0
2017-12-22T05:33:29.879Z,0
2017-12-22T05:34:32.375Z,0
2017-12-22T05:35:34.429Z,0
2017-12-22T05:36:36.525Z,0
2017-12-22T05:37:45.406Z,0
2017-12-22T05:38:47.403Z,0
2017-12-22T05:39:50.475Z,0
2017-12-22T05:40:52.434Z,0
2017-12-22T05:41:54.419Z,0
2017-12-22T05:42:56.508Z,0
2017-12-22T05:43:58.509Z,0
2017-12-22T05:45:00.638Z,0
2017-12-22T05:46:03.438Z,0
2017-12-22T05:47:06.323Z,0
2017-12-22T05:48:08.344Z,0
2017-12-22T05:49:10.356Z,0
2017-12-22T05:50:12.611Z,0
2017-12-22T05:51:14.581Z,0
2017-12-22T05:52:16.587Z,0
2017-12-22T05:53:19.374Z,0
2017-12-22T05:54:21.499Z,0
2017-12-22T05:55:23.421Z,0
2017-12-22T05:56:25.427Z,0
2017-12-22T05:57:27.466Z,0
2017-12-22T05:58:29.420Z,0
2017-12-22T05:59:31.377Z,0
2017-12-22T06:00:33.371Z,0
2017-12-22T06:01:37.708Z,0
2017-12-22T06:02:40.148Z,0
2017-12-22T06:03:42.150Z,0
2017-12-22T06:04:44.859Z,0
2017-12-22T06:05:47.195Z,0
2017-12-22T06:06:49.183Z,0
2017-12-22T06:07:53.092Z,0
2017-12-22T06:08:54.944Z,0
2017-12-22T06:09:58.019Z,0
2017-12-22T06:11:00.017Z,0
2017-12-22T06:12:03.951Z,0
2017-12-22T06:13:05.969Z,0
2017-12-22T06:14:08.870Z,0
2017-12-22T06:15:10.932Z,0
2017-12-22T06:16:13.937Z,0
2017-12-22T06:17:15.941Z,0
2017-12-22T06:18:18.744Z,0
2017-12-22T06:19:20.543Z,0
2017-12-22T06:20:22.500Z,0
2017-12-22T06:21:25.328Z,0
2017-12-22T06:22:27.039Z,0
2017-12-22T06:23:29.041Z,0
2017-12-22T06:24:32.145Z,0
2017-12-22T06:25:34.109Z,0
2017-12-22T06:26:37.852Z,0
2017-12-22T06:27:39.819Z,0
2017-12-22T06:28:42.014Z,0
2017-12-22T06:29:43.885Z,0
2017-12-22T06:30:45.986Z,0
2017-12-22T06:31:47.911Z,0
2017-12-22T06:32:49.903Z,0
2017-12-22T06:33:51.890Z,0
2017-12-22T06:34:53.906Z,0
2017-12-22T06:35:55.936Z,0
2017-12-22T06:36:57.961Z,0
2017-12-22T06:38:00.041Z,0
2017-12-22T06:39:02.123Z,0
2017-12-22T06:40:04.323Z,0
2017-12-22T06:41:06.363Z,0
2017-12-22T06:42:08.396Z,0
2017-12-22T06:43:10.471Z,0
2017-12-22T06:44:12.511Z,0
2017-12-22T06:45:14.676Z,0
2017-12-22T06:46:16.664Z,0
2017-12-22T06:48:28.244Z,0
2017-12-22T06:49:29.906Z,0
2017-12-22T06:50:31.543Z,0
2017-12-22T06:51:33.145Z,0
2017-12-22T06:52:34.763Z,0
2017-12-22T06:53:36.501Z,0
2017-12-22T06:54:38.136Z,0
2017-12-22T06:55:39.781Z,0
2017-12-22T06:56:41.550Z,0
2017-12-22T06:57:44.502Z,0
2017-12-22T06:58:46.765Z,0
2017-12-22T06:59:49.196Z,0
2017-12-22T07:00:51.584Z,0
2017-12-22T07:01:53.969Z,0
2017-12-22T07:02:56.281Z,0
2017-12-22T07:03:58.527Z,0
2017-12-22T07:05:00.754Z,0
2017-12-22T07:06:03.057Z,0
2017-12-22T07:07:04.995Z,0
2017-12-22T07:08:07.318Z,0
2017-12-22T07:09:09.913Z,0
2017-12-22T07:10:11.807Z,0
2017-12-22T07:11:13.641Z,0
2017-12-22T07:12:15.506Z,4
2017-12-22T07:13:18.072Z,4
2017-12-22T07:14:20.440Z,4
2017-12-22T07:15:22.524Z,4
2017-12-22T07:16:24.942Z,4
2017-12-22T07:17:27.281Z,0
2017-12-22T07:18:33.061Z,4
2017-12-22T07:19:35.581Z,4
2017-12-22T07:20:37.441Z,8
2017-12-22T07:21:39.763Z,4
2017-12-22T07:22:41.523Z,8
2017-12-22T07:23:43.782Z,8
2017-12-22T07:24:45.423Z,8
2017-12-22T07:25:47.164Z,8
2017-12-22T07:26:49.028Z,12
2017-12-22T07:28:00.852Z,12
2017-12-22T07:29:02.647Z,12
2017-12-22T07:30:04.738Z,8
2017-12-22T07:31:07.218Z,12
2017-12-22T07:32:09.366Z,8
2017-12-22T07:33:11.543Z,12
2017-12-22T07:34:13.643Z,12
2017-12-22T07:35:15.778Z,16
2017-12-22T07:36:18.195Z,24
2017-12-22T07:37:27.405Z,24
2017-12-22T07:38:33.044Z,32
2017-12-22T07:39:40.918Z,32
2017-12-22T07:40:46.676Z,32
2017-12-22T07:41:51.629Z,32
2017-12-22T07:42:58.982Z,32
2017-12-22T07:44:04.687Z,28
2017-12-22T07:45:10.281Z,24
2017-12-22T07:46:15.942Z,20
2017-12-22T07:47:22.226Z,24
2017-12-22T07:48:30.101Z,32
2017-12-22T07:49:35.685Z,44
2017-12-22T07:50:41.931Z,56
2017-12-22T07:51:47.811Z,60
2017-12-22T07:52:53.041Z,56
2017-12-22T07:53:57.845Z,56
2017-12-22T07:55:05.141Z,56
2017-12-22T07:56:09.188Z,60
2017-12-22T07:57:12.508Z,64
2017-12-22T07:58:18.821Z,68
2017-12-22T07:59:25.392Z,76
2017-12-22T08:00:31.258Z,80
2017-12-22T08:01:36.581Z,80
2017-12-22T08:02:42.450Z,80
2017-12-22T08:03:48.791Z,88
2017-12-22T08:04:52.060Z,96
2017-12-22T08:05:56.678Z,108
2017-12-22T08:06:59.699Z,108
2017-12-22T08:08:05.083Z,120
2017-12-22T08:09:09.424Z,132
2017-12-22T08:10:13.888Z,144
2017-12-22T08:11:20.030Z,156
2017-12-22T08:12:21.897Z,160
2017-12-22T08:13:23.690Z,176
2017-12-22T08:14:25.499Z,188
2017-12-22T08:15:27.327Z,208
2017-12-22T08:16:29.342Z,224
2017-12-22T08:17:31.024Z,236
2017-12-22T08:18:32.786Z,244
2017-12-22T08:19:36.832Z,248
2017-12-22T08:20:38.541Z,256
2017-12-22T08:21:40.197Z,272
2017-12-22T08:22:41.961Z,284
2017-12-22T08:23:43.819Z,288
2017-12-22T08:24:45.686Z,284
2017-12-22T08:25:47.328Z,288
2017-12-22T08:26:49.005Z,304
2017-12-22T08:27:50.675Z,320
2017-12-22T08:28:52.318Z,328
2017-12-22T08:29:53.977Z,336
2017-12-22T08:30:55.675Z,344
2017-12-22T08:31:57.368Z,336
2017-12-22T08:32:59.063Z,332
2017-12-22T08:34:00.703Z,336
2017-12-22T08:35:03.329Z,336
2017-12-22T08:36:04.987Z,324
2017-12-22T08:37:06.658Z,324
2017-12-22T08:38:08.328Z,336
2017-12-22T08:39:09.994Z,340
2017-12-22T08:40:11.712Z,332
2017-12-22T08:41:13.358Z,328
2017-12-22T08:42:15.020Z,328
2017-12-22T08:43:16.694Z,332
2017-12-22T08:44:18.400Z,332
2017-12-22T08:45:19.983Z,336
2017-12-22T08:46:22.409Z,348
2017-12-22T08:47:24.405Z,348
2017-12-22T08:48:26.333Z,336
2017-12-22T08:49:28.408Z,336
2017-12-22T08:50:30.395Z,336
2017-12-22T08:51:32.363Z,332
2017-12-22T08:52:35.265Z,348
2017-12-22T08:53:37.346Z,360
2017-12-22T08:54:42.402Z,376
2017-12-22T08:55:44.513Z,384
2017-12-22T08:56:46.590Z,396
2017-12-22T08:57:49.471Z,412
2017-12-22T08:58:56.295Z,432
2017-12-22T08:59:58.617Z,452
2017-12-22T09:01:03.502Z,468
2017-12-22T09:02:05.932Z,460
2017-12-22T09:03:08.006Z,476
2017-12-22T09:04:24.908Z,464
2017-12-22T09:05:27.082Z,460
2017-12-22T09:06:30.011Z,452
2017-12-22T09:07:32.831Z,488
2017-12-22T09:08:35.164Z,508
2017-12-22T09:09:37.218Z,592
2017-12-22T09:10:39.471Z,712
2017-12-22T09:11:41.793Z,756
2017-12-22T09:12:44.220Z,728
2017-12-22T09:13:47.392Z,732
2017-12-22T09:14:50.442Z,772
2017-12-22T09:15:52.617Z,848
2017-12-22T09:16:55.282Z,956
2017-12-22T09:17:57.355Z,928
2017-12-22T09:18:59.669Z,920
2017-12-22T09:20:01.920Z,976
2017-12-22T09:21:05.020Z,976
2017-12-22T09:22:07.617Z,908
2017-12-22T09:23:10.183Z,828
2017-12-22T09:24:13.160Z,700
2017-12-22T09:25:15.550Z,652
2017-12-22T09:26:18.496Z,580
2017-12-22T09:27:20.695Z,480
2017-12-22T09:28:22.869Z,416
2017-12-22T09:29:25.516Z,348
2017-12-22T09:30:27.851Z,300
2017-12-22T09:31:30.349Z,276
2017-12-22T09:32:32.894Z,252
2017-12-22T09:33:35.153Z,240
2017-12-22T09:34:37.923Z,268
2017-12-22T09:35:40.422Z,272
2017-12-22T09:36:43.120Z,244
2017-12-22T09:37:45.906Z,244
2017-12-22T09:38:49.534Z,232
2017-12-22T09:39:51.972Z,240
2017-12-22T09:42:04.130Z,240
2017-12-22T09:43:06.527Z,248
2017-12-22T09:45:01.068Z,276
2017-12-22T09:46:02.825Z,252
2017-12-22T09:47:04.500Z,276
2017-12-22T09:48:06.173Z,296
2017-12-22T09:49:07.990Z,332
2017-12-22T09:50:09.972Z,332
2017-12-22T09:51:12.017Z,360
2017-12-22T09:52:14.382Z,456
2017-12-22T09:53:16.514Z,536
2017-12-22T09:54:18.571Z,568
2017-12-22T09:55:20.706Z,616
2017-12-22T09:56:23.143Z,584
2017-12-22T09:57:25.606Z,576
2017-12-22T09:58:27.776Z,636
2017-12-22T09:59:30.041Z,532
2017-12-22T10:00:32.317Z,492
2017-12-22T10:01:34.627Z,532
2017-12-22T10:02:37.040Z,508
2017-12-22T10:03:39.915Z,488
2017-12-22T10:04:42.108Z,596
2017-12-22T10:05:44.321Z,660
2017-12-22T10:06:46.439Z,704
2017-12-22T10:07:49.620Z,668
2017-12-22T10:08:52.084Z,640
2017-12-22T10:09:54.593Z,636
2017-12-22T10:10:57.199Z,728
2017-12-22T10:12:00.242Z,808
2017-12-22T10:13:02.991Z,876
2017-12-22T10:14:05.697Z,844
2017-12-22T10:15:08.085Z,816
2017-12-22T10:16:10.902Z,764
2017-12-22T10:17:14.039Z,712
2017-12-22T10:18:17.284Z,752
2017-12-22T10:19:19.595Z,740
2017-12-22T10:20:22.368Z,708
2017-12-22T10:21:24.950Z,736
2017-12-22T10:22:27.675Z,668
2017-12-22T10:23:31.339Z,744
2017-12-22T10:24:34.428Z,784
2017-12-22T10:25:37.214Z,804
2017-12-22T10:26:39.925Z,868
2017-12-22T10:27:43.675Z,976
2017-12-22T10:28:46.953Z,1120
2017-12-22T10:29:49.723Z,1348
2017-12-22T10:30:52.084Z,1544
2017-12-22T10:31:54.794Z,1612
2017-12-22T10:32:57.041Z,1644
2017-12-22T10:33:59.521Z,1644
2017-12-22T10:35:02.191Z,1656
2017-12-22T10:36:05.000Z,1672
2017-12-22T10:37:07.714Z,1636
2017-12-22T10:38:11.079Z,1488
2017-12-22T10:39:13.752Z,1308
2017-12-22T10:40:16.538Z,1148
2017-12-22T10:41:18.978Z,1060
2017-12-22T10:42:21.903Z,996
2017-12-22T10:43:24.568Z,1208
2017-12-22T10:44:27.161Z,1256
2017-12-22T10:45:29.975Z,1388
2017-12-22T10:46:32.625Z,1360
2017-12-22T10:47:35.240Z,1332
2017-12-22T10:48:38.407Z,1388
2017-12-22T10:49:40.802Z,1396
2017-12-22T10:50:43.005Z,1216
2017-12-22T10:51:45.803Z,1184
2017-12-22T10:52:49.153Z,932
2017-12-22T10:53:51.370Z,936
2017-12-22T10:54:53.834Z,1012
2017-12-22T10:55:56.224Z,956
2017-12-22T10:56:58.451Z,1036
2017-12-22T10:58:00.608Z,1012
2017-12-22T10:59:03.208Z,1016
2017-12-22T11:00:05.436Z,1200
2017-12-22T11:01:07.943Z,1104
2017-12-22T11:02:10.164Z,1112
2017-12-22T11:03:15.112Z,1032
2017-12-22T11:04:17.435Z,1172
2017-12-22T11:05:19.762Z,1068
2017-12-22T11:06:22.239Z,1148
2017-12-22T11:07:24.711Z,1328
2017-12-22T11:08:27.067Z,1228
2017-12-22T11:09:29.594Z,1028
2017-12-22T11:10:32.587Z,960
2017-12-22T11:11:35.137Z,1008
2017-12-22T11:12:37.878Z,1260
2017-12-22T11:13:40.297Z,1300
2017-12-22T11:14:42.913Z,1080
2017-12-22T11:15:45.389Z,1016
2017-12-22T11:16:48.359Z,1100
2017-12-22T11:17:51.027Z,988
2017-12-22T11:18:53.528Z,920
2017-12-22T11:19:56.169Z,932
2017-12-22T11:20:58.892Z,880
2017-12-22T11:22:01.323Z,664
2017-12-22T11:23:03.749Z,584
2017-12-22T11:24:07.730Z,652
2017-12-22T11:25:09.947Z,852
2017-12-22T11:26:12.631Z,744
2017-12-22T11:27:14.618Z,632
2017-12-22T11:28:19.708Z,728
2017-12-22T11:29:21.987Z,784
2017-12-22T11:30:24.133Z,888
2017-12-22T11:31:26.261Z,960
2017-12-22T11:32:28.466Z,868
2017-12-22T11:33:31.440Z,864
2017-12-22T11:34:33.726Z,772
2017-12-22T11:35:35.930Z,596
2017-12-22T11:36:38.309Z,672
2017-12-22T11:37:40.368Z,696
2017-12-22T11:38:42.442Z,792
2017-12-22T11:39:44.616Z,944
2017-12-22T11:40:46.752Z,968
2017-12-22T11:41:48.819Z,1000
2017-12-22T11:42:50.948Z,988
2017-12-22T11:43:53.151Z,992
2017-12-22T11:44:55.191Z,972
2017-12-22T11:45:57.412Z,908
2017-12-22T11:47:14.460Z,852
2017-12-22T11:48:16.928Z,852
2017-12-22T11:49:19.073Z,796
2017-12-22T11:50:21.062Z,948
2017-12-22T11:51:24.031Z,1104
2017-12-22T11:52:26.292Z,1152
2017-12-22T11:53:29.109Z,832
2017-12-22T11:54:31.096Z,756
2017-12-22T11:55:33.025Z,864
2017-12-22T11:56:34.998Z,948
2017-12-22T11:57:37.826Z,936
2017-12-22T11:58:40.069Z,1020
2017-12-22T11:59:44.705Z,968
2017-12-22T12:00:46.828Z,924
2017-12-22T12:01:50.113Z,848
2017-12-22T12:02:52.801Z,808
2017-12-22T12:03:54.966Z,812
2017-12-22T12:04:57.007Z,784
2017-12-22T12:05:59.022Z,828
2017-12-22T12:07:01.431Z,864
2017-12-22T12:08:03.622Z,832
2017-12-22T12:09:06.040Z,856
2017-12-22T12:10:08.192Z,772
2017-12-22T12:11:10.269Z,944
2017-12-22T12:12:12.315Z,932
2017-12-22T12:13:14.483Z,888
2017-12-22T12:14:16.598Z,924
2017-12-22T12:15:18.828Z,984
2017-12-22T12:16:21.087Z,1132
2017-12-22T12:17:23.792Z,1012
2017-12-22T12:18:25.758Z,944
2017-12-22T12:19:27.774Z,1048
2017-12-22T12:20:29.770Z,940
2017-12-22T12:21:34.368Z,960
2017-12-22T12:22:36.416Z,812
2017-12-22T12:23:38.506Z,760
2017-12-22T12:24:40.612Z,736
2017-12-22T12:25:45.343Z,704
2017-12-22T12:26:47.454Z,744
2017-12-22T12:27:49.507Z,764
2017-12-22T12:28:51.593Z,644
2017-12-22T12:29:53.653Z,732
2017-12-22T12:30:55.734Z,704
2017-12-22T12:32:04.391Z,648
2017-12-22T12:33:06.612Z,628
2017-12-22T12:34:08.681Z,588
2017-12-22T12:35:10.648Z,572
2017-12-22T12:36:12.604Z,652
2017-12-22T12:37:14.524Z,760
2017-12-22T12:38:16.417Z,748
2017-12-22T12:39:25.189Z,720
2017-12-22T12:40:27.177Z,764
2017-12-22T12:41:29.159Z,756
2017-12-22T12:42:31.103Z,684
2017-12-22T12:43:33.062Z,716
2017-12-22T12:44:35.009Z,680
2017-12-22T12:45:36.967Z,692
2017-12-22T12:46:38.893Z,800
2017-12-22T12:47:40.811Z,816
2017-12-22T12:48:42.723Z,732
2017-12-22T12:49:44.683Z,824
2017-12-22T12:50:47.281Z,792
2017-12-22T12:51:49.181Z,752
2017-12-22T12:52:51.106Z,716
2017-12-22T12:53:53.092Z,712
2017-12-22T12:54:55.762Z,624
2017-12-22T12:55:57.808Z,540
2017-12-22T12:56:59.787Z,484
2017-12-22T12:58:02.242Z,476
2017-12-22T12:59:04.237Z,444
2017-12-22T13:00:06.226Z,416
2017-12-22T13:01:08.200Z,396
2017-12-22T13:02:10.766Z,376
2017-12-22T13:03:12.691Z,368
2017-12-22T13:04:14.603Z,352
2017-12-22T13:05:17.317Z,340
2017-12-22T13:06:19.839Z,336
2017-12-22T13:07:21.795Z,336
2017-12-22T13:08:23.754Z,336
2017-12-22T13:09:40.260Z,328
2017-12-22T13:10:42.248Z,292
2017-12-22T13:11:44.791Z,280
2017-12-22T13:12:46.697Z,256
2017-12-22T13:13:48.682Z,248
2017-12-22T13:14:50.594Z,268
2017-12-22T13:15:52.562Z,296
2017-12-22T13:16:54.551Z,296
2017-12-22T13:17:56.501Z,292
2017-12-22T13:18:59.311Z,292
2017-12-22T13:20:01.907Z,356
2017-12-22T13:21:03.916Z,368
2017-12-22T13:22:05.882Z,404
2017-12-22T13:23:07.913Z,400
2017-12-22T13:24:09.800Z,412
2017-12-22T13:25:11.675Z,420
2017-12-22T13:26:20.251Z,444
2017-12-22T13:27:22.254Z,416
2017-12-22T13:28:24.149Z,404
2017-12-22T13:29:26.092Z,412
2017-12-22T13:30:27.972Z,420
2017-12-22T13:31:29.888Z,424
2017-12-22T13:32:31.863Z,428
2017-12-22T13:33:33.769Z,424
2017-12-22T13:34:35.685Z,404
2017-12-22T13:35:37.554Z,416
2017-12-22T13:36:39.537Z,392
2017-12-22T13:37:42.339Z,364
2017-12-22T13:38:44.272Z,384
2017-12-22T13:39:46.202Z,376
2017-12-22T13:40:48.201Z,384
2017-12-22T13:41:50.293Z,388
2017-12-22T13:42:52.319Z,388
2017-12-22T13:43:54.241Z,372
2017-12-22T13:44:56.238Z,340
2017-12-22T13:46:00.359Z,332
2017-12-22T13:47:02.275Z,300
2017-12-22T13:48:04.299Z,264
2017-12-22T13:49:06.289Z,256
2017-12-22T13:50:08.962Z,252
2017-12-22T13:51:11.959Z,260
2017-12-22T13:52:13.984Z,312
2017-12-22T13:53:17.002Z,412
2017-12-22T13:54:18.941Z,444
2017-12-22T13:55:20.865Z,456
2017-12-22T13:56:23.459Z,484
2017-12-22T13:57:25.357Z,552
2017-12-22T13:58:27.959Z,588
2017-12-22T13:59:34.927Z,584
2017-12-22T14:00:39.352Z,552
2017-12-22T14:01:41.889Z,516
2017-12-22T14:02:44.838Z,492
2017-12-22T14:03:47.070Z,472
2017-12-22T14:04:52.500Z,452
2017-12-22T14:05:55.288Z,444
2017-12-22T14:06:59.103Z,440
2017-12-22T14:08:03.275Z,452
2017-12-22T14:09:06.408Z,484
2017-12-22T14:10:10.104Z,516
2017-12-22T14:11:12.999Z,548
2017-12-22T14:12:14.934Z,572
2017-12-22T14:13:21.516Z,576
2017-12-22T14:14:23.611Z,552
2017-12-22T14:15:25.605Z,520
2017-12-22T14:16:27.334Z,500
2017-12-22T14:17:29.804Z,500
2017-12-22T14:18:32.512Z,504
2017-12-22T14:19:34.467Z,508
2017-12-22T14:20:36.548Z,500
2017-12-22T14:21:38.544Z,484
2017-12-22T14:22:40.478Z,468
2017-12-22T14:23:42.522Z,460
2017-12-22T14:24:44.590Z,464
2017-12-22T14:25:46.618Z,472
2017-12-22T14:26:48.687Z,464
2017-12-22T14:27:50.741Z,456
2017-12-22T14:28:52.810Z,444
2017-12-22T14:29:54.830Z,428
2017-12-22T14:30:57.510Z,416
2017-12-22T14:31:59.453Z,404
2017-12-22T14:33:01.501Z,388
2017-12-22T14:34:03.521Z,368
2017-12-22T14:35:05.485Z,348
2017-12-22T14:36:08.426Z,336
2017-12-22T14:37:10.225Z,316
2017-12-22T14:38:12.303Z,304
2017-12-22T14:39:14.451Z,296
2017-12-22T14:40:16.438Z,288
2017-12-22T14:41:19.198Z,288
2017-12-22T14:42:22.610Z,288
2017-12-22T14:43:24.629Z,292
2017-12-22T14:44:27.499Z,288
2017-12-22T14:45:29.557Z,280
2017-12-22T14:46:31.544Z,276
2017-12-22T14:47:33.539Z,276
2017-12-22T14:48:36.388Z,276
2017-12-22T14:49:38.345Z,272
2017-12-22T14:50:40.359Z,272
2017-12-22T14:51:42.389Z,272
2017-12-22T14:52:44.357Z,268
2017-12-22T14:53:46.722Z,264
2017-12-22T14:54:49.340Z,256
2017-12-22T14:55:51.257Z,244
2017-12-22T14:56:53.230Z,236
2017-12-22T14:57:57.981Z,232
2017-12-22T14:58:59.960Z,228
2017-12-22T15:00:01.937Z,220
2017-12-22T15:01:06.506Z,212